Time;durP1;ratioP1;P1;durP2;ratioP2;P2;SDS_P1;SDS_P2;PMS_P1;PMS_P2;Temp;Humidity;BMP_temperature;BMP_pressure;BME280_temperature;BME280_humidity;BME280_pressure;Samples;Min_cycle;Max_cycle;Signal;HPM_P1;HPM_P2
2023/12/21 00:00:14;;;;;;;5.40;4.63;;;9.40;99.90;;;;;;5136735;27;20470;-67
2023/12/21 00:02:40;;;;;;;10.20;4.70;;;9.40;99.90;;;;;;5118700;27;20446;-69
2023/12/21 00:05:09;;;;;;;8.00;4.30;;;9.50;99.90;;;;;;5136717;27;21025;-68
2023/12/21 00:07:36;;;;;;;6.00;5.50;;;9.50;99.90;;;;;;5118456;27;20966;-69
2023/12/21 00:10:03;;;;;;;5.93;5.00;;;9.50;99.90;;;;;;5136090;27;20465;-68
2023/12/21 00:12:30;;;;;;;7.40;5.77;;;9.50;99.90;;;;;;5135816;27;20438;-69
2023/12/21 00:14:57;;;;;;;5.80;5.30;;;9.50;99.90;;;;;;5135321;27;20946;-68
2023/12/21 00:17:23;;;;;;;7.90;5.97;;;9.50;99.90;;;;;;5136063;27;20935;-68
2023/12/21 00:19:49;;;;;;;8.67;5.73;;;9.50;99.90;;;;;;5135916;27;20469;-68
2023/12/21 00:22:17;;;;;;;6.10;5.20;;;9.50;99.90;;;;;;5135985;27;20438;-68
2023/12/21 00:24:44;;;;;;;7.47;5.10;;;9.50;99.90;;;;;;5135874;27;20200;-68
2023/12/21 00:27:11;;;;;;;10.27;7.20;;;9.50;99.90;;;;;;5135437;27;20951;-68
2023/12/21 00:29:37;;;;;;;6.83;6.20;;;9.50;99.90;;;;;;5135613;27;20454;-68
2023/12/21 00:32:05;;;;;;;6.13;5.47;;;9.50;99.90;;;;;;5135506;27;20930;-68
2023/12/21 00:34:31;;;;;;;6.43;5.40;;;9.50;99.90;;;;;;5135534;27;20792;-68
2023/12/21 00:37:01;;;;;;;6.83;6.13;;;9.50;99.90;;;;;;5135660;27;20441;-68
2023/12/21 00:39:29;;;;;;;7.70;6.60;;;9.50;99.90;;;;;;5135324;27;20458;-68
2023/12/21 00:41:55;;;;;;;7.30;6.63;;;9.50;99.90;;;;;;5116995;27;20446;-68
2023/12/21 00:44:23;;;;;;;7.00;6.17;;;9.50;99.90;;;;;;5135315;27;20438;-68
2023/12/21 00:46:49;;;;;;;7.40;6.57;;;9.50;99.90;;;;;;5135300;27;20482;-68
2023/12/21 00:49:16;;;;;;;10.07;7.20;;;9.60;99.90;;;;;;5134814;27;20872;-67
2023/12/21 00:51:43;;;;;;;7.93;7.10;;;9.70;99.90;;;;;;5135305;27;20438;-68
2023/12/21 00:54:10;;;;;;;8.40;6.67;;;9.70;99.90;;;;;;5134735;27;20935;-68
2023/12/21 00:56:38;;;;;;;8.60;7.63;;;9.70;99.90;;;;;;5140800;27;20433;-68
2023/12/21 00:59:04;;;;;;;10.50;8.13;;;9.70;99.90;;;;;;5140637;27;20557;-67
2023/12/21 01:01:31;;;;;;;8.70;7.80;;;9.60;99.90;;;;;;5138599;27;20441;-69
2023/12/21 01:03:58;;;;;;;11.53;8.80;;;9.70;99.90;;;;;;5136923;27;20832;-68
2023/12/21 01:06:24;;;;;;;12.03;7.90;;;9.70;99.90;;;;;;5135863;27;20559;-68
2023/12/21 01:08:51;;;;;;;10.30;8.07;;;9.70;99.90;;;;;;5135905;27;20494;-67
2023/12/21 01:11:18;;;;;;;12.00;7.77;;;9.70;99.90;;;;;;5135397;27;20446;-68
2023/12/21 01:13:46;;;;;;;13.50;8.70;;;9.70;99.90;;;;;;5135239;27;20445;-68
2023/12/21 01:16:14;;;;;;;10.67;8.83;;;9.70;99.90;;;;;;5135303;27;20475;-68
2023/12/21 01:18:42;;;;;;;11.47;8.37;;;9.70;99.90;;;;;;5135664;27;20495;-68
2023/12/21 01:21:09;;;;;;;16.90;8.90;;;9.80;99.90;;;;;;5135470;27;20458;-67
2023/12/21 01:23:35;;;;;;;9.63;7.83;;;9.70;99.90;;;;;;5135825;27;20779;-68
2023/12/21 01:26:03;;;;;;;13.57;8.10;;;9.70;99.90;;;;;;5133818;27;20481;-68
2023/12/21 01:28:29;;;;;;;10.40;8.80;;;9.70;99.90;;;;;;5134322;27;20446;-68
2023/12/21 01:30:57;;;;;;;10.97;8.70;;;9.70;99.90;;;;;;5134895;27;20855;-67
2023/12/21 01:33:24;;;;;;;13.57;8.17;;;9.70;99.90;;;;;;5135249;27;20442;-68
2023/12/21 01:35:51;;;;;;;10.60;8.37;;;9.70;99.90;;;;;;5134264;27;20469;-68
2023/12/21 01:38:18;;;;;;;8.90;7.50;;;9.80;99.90;;;;;;5115679;28;20438;-68
2023/12/21 01:40:45;;;;;;;10.10;7.40;;;9.80;99.90;;;;;;5134173;28;20846;-69
2023/12/21 01:43:11;;;;;;;7.10;6.40;;;9.70;99.90;;;;;;5134648;28;20495;-68
2023/12/21 01:45:38;;;;;;;7.80;7.00;;;9.70;99.90;;;;;;5134483;28;20480;-68
2023/12/21 01:48:07;;;;;;;9.43;7.00;;;9.70;99.90;;;;;;5134296;28;20438;-69
2023/12/21 01:50:34;;;;;;;10.90;6.47;;;9.80;99.90;;;;;;5134011;28;20966;-68
2023/12/21 01:53:03;;;;;;;8.20;6.00;;;9.80;99.90;;;;;;5133870;28;20454;-68
2023/12/21 01:55:31;;;;;;;6.60;5.80;;;9.70;99.90;;;;;;5134345;28;20449;-68
2023/12/21 01:57:59;;;;;;;7.63;6.30;;;9.70;99.90;;;;;;5134214;28;20442;-68
2023/12/21 02:00:26;;;;;;;8.33;6.20;;;9.70;99.90;;;;;;5134160;28;20458;-68
2023/12/21 02:02:53;;;;;;;7.30;5.77;;;9.70;99.90;;;;;;5134261;28;20449;-68
2023/12/21 02:05:21;;;;;;;10.97;5.60;;;9.70;99.90;;;;;;5134057;28;20963;-68
2023/12/21 02:07:48;;;;;;;5.67;4.63;;;9.70;99.90;;;;;;5133789;28;20442;-68
2023/12/21 02:10:15;;;;;;;15.17;5.60;;;9.70;99.90;;;;;;5133726;28;20962;-67
2023/12/21 02:12:42;;;;;;;6.63;4.43;;;9.70;99.90;;;;;;5133941;28;20457;-68
2023/12/21 02:15:10;;;;;;;6.10;5.10;;;9.70;99.90;;;;;;5134120;28;20953;-68
2023/12/21 02:17:38;;;;;;;5.90;4.90;;;9.70;99.90;;;;;;5134244;28;20442;-68
2023/12/21 02:20:07;;;;;;;7.43;4.80;;;9.70;99.90;;;;;;5134758;28;20458;-67
2023/12/21 02:22:37;;;;;;;8.73;5.30;;;9.80;99.90;;;;;;5116112;28;20433;-68
2023/12/21 02:25:07;;;;;;;14.83;7.73;;;9.80;99.90;;;;;;5133790;28;20442;-68
2023/12/21 02:27:34;;;;;;;5.13;4.63;;;9.70;99.90;;;;;;5133979;28;20485;-68
2023/12/21 02:30:01;;;;;;;5.90;4.93;;;9.70;99.90;;;;;;5133666;28;20997;-68
2023/12/21 02:32:28;;;;;;;6.23;4.83;;;9.80;99.90;;;;;;5133660;28;20441;-69
2023/12/21 02:34:54;;;;;;;7.10;4.97;;;9.80;99.90;;;;;;5133848;28;20434;-68
2023/12/21 02:37:21;;;;;;;9.00;5.10;;;9.80;99.90;;;;;;5133695;27;20804;-68
2023/12/21 02:39:48;;;;;;;7.03;4.73;;;9.80;99.90;;;;;;5137735;27;20485;-68
2023/12/21 02:42:16;;;;;;;7.30;4.80;;;9.80;99.90;;;;;;5137796;27;20442;-68
2023/12/21 02:44:43;;;;;;;6.50;5.30;;;9.80;99.90;;;;;;5137690;27;20442;-68
2023/12/21 02:47:09;;;;;;;7.27;4.83;;;9.80;99.90;;;;;;5137352;27;20473;-68
2023/12/21 02:49:36;;;;;;;6.00;5.40;;;9.80;99.90;;;;;;5137514;27;20466;-68
2023/12/21 02:52:04;;;;;;;9.57;6.27;;;9.80;99.90;;;;;;5137429;27;20449;-68
2023/12/21 02:54:31;;;;;;;9.93;5.80;;;9.80;99.90;;;;;;5137772;27;20445;-68
2023/12/21 02:56:58;;;;;;;7.33;5.27;;;9.80;99.90;;;;;;5137074;27;20931;-68
2023/12/21 02:59:26;;;;;;;9.90;5.70;;;9.80;99.90;;;;;;5137184;27;20450;-68
2023/12/21 03:01:53;;;;;;;5.73;5.13;;;9.80;99.90;;;;;;5137170;27;20623;-68
2023/12/21 03:04:20;;;;;;;7.20;5.83;;;9.80;99.90;;;;;;5119076;27;20442;-68
2023/12/21 03:06:47;;;;;;;5.27;4.60;;;9.80;99.90;;;;;;5136593;27;20481;-68
2023/12/21 03:09:13;;;;;;;5.97;5.00;;;9.80;99.90;;;;;;5136704;27;20819;-68
2023/12/21 03:11:40;;;;;;;9.30;5.93;;;9.80;99.90;;;;;;5136977;27;20441;-69
2023/12/21 03:14:07;;;;;;;10.90;5.43;;;9.80;99.90;;;;;;5145782;27;20434;-68
2023/12/21 03:16:35;;;;;;;9.03;5.93;;;9.80;99.90;;;;;;5150463;27;20442;-68
2023/12/21 03:19:01;;;;;;;9.83;6.20;;;9.80;99.90;;;;;;5149828;27;20816;-68
2023/12/21 03:21:28;;;;;;;16.80;5.57;;;9.80;99.90;;;;;;5146177;27;20446;-69
2023/12/21 03:23:55;;;;;;;8.80;5.60;;;9.80;99.90;;;;;;5144973;27;20446;-69
2023/12/21 03:26:22;;;;;;;11.20;5.20;;;9.80;99.90;;;;;;5143677;27;21002;-69
2023/12/21 03:28:48;;;;;;;11.43;6.40;;;9.90;99.90;;;;;;5142682;27;20448;-67
2023/12/21 03:31:17;;;;;;;9.47;5.60;;;9.90;99.90;;;;;;5140735;27;20441;-68
2023/12/21 03:33:45;;;;;;;11.27;5.30;;;9.90;99.90;;;;;;5140923;27;20954;-69
2023/12/21 03:36:13;;;;;;;5.73;5.03;;;9.90;99.90;;;;;;5139813;27;20538;-68
2023/12/21 03:38:40;;;;;;;6.30;5.47;;;9.90;99.90;;;;;;5139692;27;20470;-68
2023/12/21 03:41:06;;;;;;;12.20;5.53;;;9.90;99.90;;;;;;5121367;27;20457;-68
2023/12/21 03:43:33;;;;;;;11.20;5.37;;;9.90;99.90;;;;;;5138932;27;20499;-68
2023/12/21 03:46:00;;;;;;;10.37;5.40;;;10.00;99.90;;;;;;5138257;27;20438;-68
2023/12/21 03:48:26;;;;;;;8.53;5.37;;;9.90;99.90;;;;;;5137303;27;20445;-68
2023/12/21 03:50:55;;;;;;;11.27;4.40;;;9.90;99.90;;;;;;5137862;27;20480;-68
2023/12/21 03:53:22;;;;;;;7.87;4.50;;;9.90;99.90;;;;;;5137369;27;20454;-68
2023/12/21 03:55:48;;;;;;;8.70;4.23;;;9.90;99.90;;;;;;5137031;27;20923;-68
2023/12/21 03:58:15;;;;;;;8.00;5.13;;;9.80;99.90;;;;;;5137440;27;20438;-68
2023/12/21 04:00:42;;;;;;;9.63;5.00;;;9.80;99.90;;;;;;5137118;27;20531;-67
2023/12/21 04:03:08;;;;;;;7.10;4.43;;;9.80;99.90;;;;;;5137059;27;20475;-68
2023/12/21 04:05:35;;;;;;;9.23;4.40;;;9.90;99.90;;;;;;5137205;27;20846;-68
2023/12/21 04:08:03;;;;;;;10.53;4.60;;;9.80;99.90;;;;;;5137132;27;20482;-68
2023/12/21 04:10:30;;;;;;;4.83;3.60;;;9.80;99.90;;;;;;5136575;27;20465;-68
2023/12/21 04:12:56;;;;;;;7.07;4.33;;;9.80;99.90;;;;;;5136582;27;20446;-68
2023/12/21 04:15:23;;;;;;;12.83;4.77;;;9.70;99.90;;;;;;5136438;27;20442;-68
2023/12/21 04:17:50;;;;;;;8.40;4.17;;;9.70;99.90;;;;;;5135987;27;20931;-68
2023/12/21 04:20:18;;;;;;;8.67;3.87;;;9.70;99.90;;;;;;5135657;27;20824;-67
2023/12/21 04:22:44;;;;;;;8.20;4.97;;;9.80;99.90;;;;;;5135920;27;20450;-68
2023/12/21 04:25:13;;;;;;;6.30;3.90;;;9.80;99.90;;;;;;5136342;27;20452;-68
2023/12/21 04:27:40;;;;;;;8.13;4.10;;;9.80;99.90;;;;;;5135908;27;20478;-68
2023/12/21 04:30:08;;;;;;;5.87;3.50;;;9.80;99.90;;;;;;5135426;27;20458;-67
2023/12/21 04:32:35;;;;;;;5.20;4.10;;;9.80;99.90;;;;;;5135086;27;20973;-67
2023/12/21 04:35:01;;;;;;;9.60;4.77;;;9.70;99.90;;;;;;5135638;27;20442;-68
2023/12/21 04:37:28;;;;;;;6.90;4.20;;;9.70;99.90;;;;;;5135722;27;20438;-67
2023/12/21 04:39:55;;;;;;;6.70;4.07;;;9.70;99.90;;;;;;5117851;27;20458;-67
2023/12/21 04:42:23;;;;;;;6.43;4.00;;;9.70;99.90;;;;;;5135212;27;20449;-68
2023/12/21 04:44:50;;;;;;;8.50;3.77;;;9.80;99.90;;;;;;5135351;27;20471;-68
2023/12/21 04:47:16;;;;;;;6.53;3.37;;;9.80;99.90;;;;;;5135384;27;20891;-68
2023/12/21 04:49:43;;;;;;;9.60;4.17;;;9.80;99.90;;;;;;5135230;27;20458;-68
2023/12/21 04:52:10;;;;;;;6.67;3.70;;;9.80;99.90;;;;;;5135097;27;20434;-68
2023/12/21 04:54:36;;;;;;;6.67;3.63;;;9.90;99.90;;;;;;5135393;27;20429;-67
2023/12/21 04:57:03;;;;;;;7.73;4.90;;;9.90;99.90;;;;;;5135237;27;20441;-67
2023/12/21 04:59:31;;;;;;;7.10;3.50;;;9.80;99.90;;;;;;5134541;27;20465;-68
2023/12/21 05:01:58;;;;;;;7.33;3.33;;;9.80;99.90;;;;;;5135154;27;20437;-68
2023/12/21 05:04:25;;;;;;;9.17;4.43;;;9.90;99.90;;;;;;5135225;27;20495;-68
2023/12/21 05:06:52;;;;;;;5.40;3.97;;;9.90;99.90;;;;;;5135104;27;20925;-71
2023/12/21 05:09:18;;;;;;;11.00;4.23;;;9.90;99.90;;;;;;5135021;27;20470;-70
2023/12/21 05:11:45;;;;;;;8.17;4.40;;;9.90;99.90;;;;;;5135212;27;20438;-70
2023/12/21 05:14:12;;;;;;;7.40;4.30;;;9.90;99.90;;;;;;5136318;27;20799;-67
2023/12/21 05:16:40;;;;;;;9.40;4.40;;;10.00;99.90;;;;;;5134988;27;20438;-67
2023/12/21 05:19:07;;;;;;;7.03;4.20;;;9.90;99.90;;;;;;5135067;27;20441;-67
2023/12/21 05:21:36;;;;;;;8.30;3.90;;;9.90;99.90;;;;;;5135130;27;20445;-67
2023/12/21 05:24:02;;;;;;;10.10;4.73;;;9.90;99.90;;;;;;5134915;27;20442;-67
2023/12/21 05:26:29;;;;;;;5.63;4.87;;;9.90;99.90;;;;;;5134780;27;20438;-67
2023/12/21 05:28:57;;;;;;;11.83;5.87;;;9.90;99.90;;;;;;5134556;27;20938;-67
2023/12/21 05:31:24;;;;;;;5.27;3.93;;;9.90;99.90;;;;;;5141045;27;20445;-67
2023/12/21 05:33:52;;;;;;;9.40;4.50;;;9.90;99.90;;;;;;5141004;27;21004;-67
2023/12/21 05:36:22;;;;;;;11.27;4.90;;;9.90;99.90;;;;;;5140353;27;20445;-67
2023/12/21 05:38:49;;;;;;;9.27;5.33;;;9.90;99.90;;;;;;5137761;27;20450;-67
2023/12/21 05:41:16;;;;;;;10.97;5.73;;;10.00;99.90;;;;;;5136048;28;20445;-68
2023/12/21 05:43:43;;;;;;;10.97;7.53;;;9.90;99.90;;;;;;5135431;28;20446;-68
2023/12/21 05:46:09;;;;;;;12.73;6.17;;;10.00;99.90;;;;;;5135324;28;20440;-67
2023/12/21 05:48:37;;;;;;;11.83;6.00;;;10.00;99.90;;;;;;5135008;28;20482;-68
2023/12/21 05:51:05;;;;;;;11.07;6.63;;;10.00;99.90;;;;;;5134703;28;20462;-67
2023/12/21 05:53:34;;;;;;;10.07;5.60;;;10.00;99.90;;;;;;5136207;28;20819;-68
2023/12/21 05:56:02;;;;;;;15.00;6.17;;;10.00;99.90;;;;;;5135514;28;20460;-68
2023/12/21 05:58:28;;;;;;;21.80;6.47;;;10.00;99.90;;;;;;5116772;28;20438;-68
2023/12/21 06:00:55;;;;;;;11.17;6.90;;;10.00;99.90;;;;;;5134589;28;20469;-68
2023/12/21 06:03:21;;;;;;;16.03;6.23;;;10.10;99.90;;;;;;5134261;28;20602;-67
2023/12/21 06:05:49;;;;;;;14.07;6.33;;;10.10;99.90;;;;;;5134697;28;20441;-67
2023/12/21 06:08:17;;;;;;;14.90;6.00;;;10.10;99.90;;;;;;5134530;28;20470;-67
2023/12/21 06:10:44;;;;;;;20.57;6.43;;;10.10;99.90;;;;;;5134337;28;20458;-67
2023/12/21 06:13:10;;;;;;;11.87;5.50;;;10.00;99.90;;;;;;5137376;27;20441;-68
2023/12/21 06:15:37;;;;;;;12.03;6.10;;;10.10;99.90;;;;;;5138512;27;20446;-67
2023/12/21 06:18:04;;;;;;;16.30;6.17;;;10.10;99.90;;;;;;5138374;27;20495;-67
2023/12/21 06:20:35;;;;;;;12.93;6.37;;;10.10;99.90;;;;;;5138290;27;20461;-67
2023/12/21 06:23:01;;;;;;;12.63;5.30;;;10.10;99.90;;;;;;5139586;27;20426;-68
2023/12/21 06:25:29;;;;;;;14.77;6.37;;;10.10;99.90;;;;;;5138236;27;20442;-67
2023/12/21 06:27:56;;;;;;;13.50;5.67;;;10.10;99.90;;;;;;5138388;27;20474;-67
2023/12/21 06:30:23;;;;;;;19.17;6.37;;;10.10;99.90;;;;;;5138027;27;20462;-67
2023/12/21 06:32:49;;;;;;;13.53;5.30;;;10.20;99.90;;;;;;5138118;27;20446;-67
2023/12/21 06:35:17;;;;;;;10.60;6.97;;;10.10;99.90;;;;;;5119943;27;20442;-67
2023/12/21 06:37:44;;;;;;;12.13;5.80;;;10.20;99.90;;;;;;5137299;27;20824;-66
2023/12/21 06:40:12;;;;;;;13.37;6.70;;;10.10;99.90;;;;;;5137950;27;20457;-67
2023/12/21 06:42:40;;;;;;;14.30;6.37;;;10.10;99.90;;;;;;5137763;27;20465;-67
2023/12/21 06:45:07;;;;;;;12.83;6.07;;;10.20;99.90;;;;;;5137907;27;20450;-67
2023/12/21 06:47:34;;;;;;;12.73;6.40;;;10.10;99.90;;;;;;5137810;27;20474;-68
2023/12/21 06:50:01;;;;;;;11.53;6.57;;;10.20;99.90;;;;;;5137562;27;20835;-67
2023/12/21 06:52:28;;;;;;;12.50;5.90;;;10.20;99.90;;;;;;5137163;27;20834;-68
2023/12/21 06:54:54;;;;;;;12.60;6.40;;;10.20;99.90;;;;;;5137630;27;20438;-67
2023/12/21 06:57:21;;;;;;;9.43;6.03;;;10.20;99.90;;;;;;5137681;27;20434;-67
2023/12/21 06:59:49;;;;;;;18.10;6.43;;;10.20;99.90;;;;;;5137451;27;20465;-67
2023/12/21 07:02:16;;;;;;;12.93;5.40;;;10.20;99.90;;;;;;5137066;27;20962;-67
2023/12/21 07:04:43;;;;;;;15.53;6.53;;;10.20;99.90;;;;;;5137027;27;20970;-67
2023/12/21 07:07:09;;;;;;;17.93;5.93;;;10.20;99.90;;;;;;5137271;27;20519;-68
2023/12/21 07:09:36;;;;;;;15.83;6.43;;;10.20;99.90;;;;;;5136875;27;20465;-67
2023/12/21 07:12:05;;;;;;;13.70;5.80;;;10.20;99.90;;;;;;5137369;27;20481;-67
2023/12/21 07:14:32;;;;;;;13.40;5.90;;;10.20;99.90;;;;;;5137331;27;20450;-68
2023/12/21 07:17:00;;;;;;;13.20;6.90;;;10.20;99.90;;;;;;5137551;27;20490;-69
2023/12/21 07:19:27;;;;;;;11.40;5.83;;;10.20;99.90;;;;;;5136601;27;21072;-67
2023/12/21 07:21:53;;;;;;;12.07;5.17;;;10.30;99.90;;;;;;5136972;27;20846;-68
2023/12/21 07:24:20;;;;;;;17.90;5.10;;;10.30;99.90;;;;;;5136828;27;20441;-68
2023/12/21 07:26:47;;;;;;;20.53;7.17;;;10.30;99.90;;;;;;5137032;27;20434;-67
2023/12/21 07:29:14;;;;;;;7.90;5.53;;;10.30;99.90;;;;;;5136696;27;20489;-69
2023/12/21 07:31:41;;;;;;;14.53;5.50;;;10.30;99.90;;;;;;5136776;27;20433;-68
2023/12/21 07:34:09;;;;;;;16.53;6.43;;;10.30;99.90;;;;;;5135966;27;20534;-68
2023/12/21 07:36:36;;;;;;;19.20;7.37;;;10.30;99.90;;;;;;5136528;27;20426;-68
2023/12/21 07:39:04;;;;;;;18.13;5.67;;;10.30;99.90;;;;;;5136445;27;20441;-67
2023/12/21 07:41:31;;;;;;;14.23;5.10;;;10.40;99.90;;;;;;5136495;27;20528;-68
2023/12/21 07:43:58;;;;;;;14.13;5.37;;;10.40;99.90;;;;;;5136191;27;20923;-68
2023/12/21 07:46:25;;;;;;;16.77;5.87;;;10.40;99.90;;;;;;5136295;27;20862;-68
2023/12/21 07:48:52;;;;;;;21.70;6.77;;;10.40;99.90;;;;;;5147071;27;20500;-67
2023/12/21 07:51:21;;;;;;;12.10;4.53;;;10.40;99.90;;;;;;5141948;27;20448;-69
2023/12/21 07:53:47;;;;;;;11.47;5.23;;;10.40;99.90;;;;;;5139284;27;20449;-68
2023/12/21 07:56:14;;;;;;;14.50;6.53;;;10.40;99.90;;;;;;5138583;27;20446;-68
2023/12/21 07:58:41;;;;;;;17.47;5.60;;;10.40;99.90;;;;;;5137033;27;20441;-68
2023/12/21 08:01:08;;;;;;;9.80;5.73;;;10.40;99.90;;;;;;5136921;27;20473;-68
2023/12/21 08:03:35;;;;;;;12.77;4.67;;;10.40;99.90;;;;;;5136782;27;20460;-68
2023/12/21 08:06:02;;;;;;;16.67;5.13;;;10.40;99.90;;;;;;5136376;27;20943;-68
2023/12/21 08:08:30;;;;;;;12.00;4.23;;;10.50;99.90;;;;;;5136717;27;20873;-68
2023/12/21 08:10:57;;;;;;;6.73;3.70;;;10.50;99.90;;;;;;5136891;27;20466;-68
2023/12/21 08:13:24;;;;;;;8.17;3.77;;;10.50;99.90;;;;;;5118383;27;20442;-68
2023/12/21 08:15:52;;;;;;;9.77;4.43;;;10.50;99.90;;;;;;5136330;27;20536;-68
2023/12/21 08:18:18;;;;;;;10.60;4.93;;;10.50;99.90;;;;;;5136893;27;20438;-68
2023/12/21 08:20:47;;;;;;;10.00;4.30;;;10.50;99.90;;;;;;5136409;27;20458;-68
2023/12/21 08:23:14;;;;;;;15.13;4.43;;;10.60;99.90;;;;;;5136263;27;20855;-68
2023/12/21 08:25:42;;;;;;;6.50;3.87;;;10.60;99.90;;;;;;5136020;27;20950;-68
2023/12/21 08:28:09;;;;;;;11.70;4.40;;;10.60;99.90;;;;;;5136127;27;20472;-67
2023/12/21 08:30:35;;;;;;;13.00;4.57;;;10.60;99.90;;;;;;5135879;27;20465;-67
2023/12/21 08:33:02;;;;;;;17.43;4.17;;;10.60;99.90;;;;;;5135898;27;20434;-67
2023/12/21 08:35:29;;;;;;;8.23;4.00;;;10.50;99.90;;;;;;5134946;27;20440;-66
2023/12/21 08:37:56;;;;;;;15.63;4.00;;;10.50;99.90;;;;;;5135816;27;20441;-67
2023/12/21 08:40:23;;;;;;;12.23;4.60;;;10.50;99.90;;;;;;5135497;27;20458;-66
2023/12/21 08:42:51;;;;;;;8.43;3.90;;;10.60;99.90;;;;;;5135399;27;20445;-66
2023/12/21 08:45:18;;;;;;;8.77;3.30;;;10.50;99.90;;;;;;5135401;27;20438;-67
2023/12/21 08:47:45;;;;;;;10.93;4.00;;;10.50;99.90;;;;;;5134989;27;20485;-66
2023/12/21 08:50:12;;;;;;;9.23;4.03;;;10.50;99.90;;;;;;5134924;27;21035;-67
2023/12/21 08:52:38;;;;;;;7.40;3.67;;;10.50;99.90;;;;;;5135163;27;20476;-67
2023/12/21 08:55:06;;;;;;;16.03;4.30;;;10.50;99.90;;;;;;5135339;27;20513;-67
2023/12/21 08:57:36;;;;;;;7.87;3.33;;;10.40;99.90;;;;;;5135206;27;20442;-66
2023/12/21 09:00:05;;;;;;;7.30;3.40;;;10.40;99.90;;;;;;5135261;27;20461;-66
2023/12/21 09:02:33;;;;;;;9.43;3.87;;;10.50;99.90;;;;;;5135027;27;20446;-66
2023/12/21 09:05:00;;;;;;;10.23;3.00;;;10.40;99.90;;;;;;5135320;27;20437;-66
2023/12/21 09:07:26;;;;;;;11.67;3.67;;;10.50;99.90;;;;;;5135009;27;20446;-66
2023/12/21 09:09:53;;;;;;;5.70;3.10;;;10.50;99.90;;;;;;5135439;27;20465;-66
2023/12/21 09:12:20;;;;;;;6.00;3.10;;;10.40;99.90;;;;;;5135190;27;20830;-67
2023/12/21 09:14:47;;;;;;;10.70;4.13;;;10.40;99.90;;;;;;5135026;27;20442;-67
2023/12/21 09:17:15;;;;;;;10.33;3.33;;;10.40;99.90;;;;;;5134482;27;20793;-67
2023/12/21 09:19:43;;;;;;;10.20;4.30;;;10.40;99.90;;;;;;5134204;27;20461;-66
2023/12/21 09:22:10;;;;;;;10.70;4.23;;;10.50;99.90;;;;;;5135221;27;20442;-66
2023/12/21 09:24:37;;;;;;;8.80;3.87;;;10.50;99.90;;;;;;5134985;27;20504;-66
2023/12/21 09:27:05;;;;;;;10.53;3.70;;;10.50;99.90;;;;;;5134874;27;20441;-67
2023/12/21 09:29:31;;;;;;;5.80;3.20;;;10.50;99.90;;;;;;5134418;27;20492;-66
2023/12/21 09:31:59;;;;;;;5.77;3.10;;;10.50;99.90;;;;;;5134735;27;20442;-66
2023/12/21 09:34:27;;;;;;;14.47;5.20;;;10.50;99.90;;;;;;5134688;27;20457;-67
2023/12/21 09:36:54;;;;;;;6.90;3.10;;;10.50;99.90;;;;;;5134137;27;20500;-66
2023/12/21 09:39:21;;;;;;;5.83;2.60;;;10.50;99.90;;;;;;5134440;27;20458;-66
2023/12/21 09:41:49;;;;;;;4.00;2.50;;;10.50;99.90;;;;;;5134455;28;20437;-66
2023/12/21 09:44:17;;;;;;;6.13;2.40;;;10.50;99.90;;;;;;5134377;28;20498;-66
2023/12/21 09:46:45;;;;;;;3.13;2.30;;;10.60;99.90;;;;;;5134985;27;20506;-66
2023/12/21 09:49:14;;;;;;;5.10;2.40;;;10.60;99.90;;;;;;5138629;27;20850;-66
2023/12/21 09:51:44;;;;;;;3.63;3.00;;;10.50;99.90;;;;;;5120260;27;20445;-66
2023/12/21 09:54:12;;;;;;;3.63;2.27;;;10.60;99.90;;;;;;5138352;27;20454;-66
2023/12/21 09:56:40;;;;;;;6.40;2.73;;;10.60;99.90;;;;;;5138293;27;20934;-66
2023/12/21 09:59:07;;;;;;;3.60;2.20;;;10.60;99.90;;;;;;5138569;27;20441;-65
2023/12/21 10:01:34;;;;;;;4.90;2.37;;;10.60;99.90;;;;;;5138498;27;20446;-66
2023/12/21 10:04:01;;;;;;;4.93;2.03;;;10.60;99.90;;;;;;5140534;27;20441;-67
2023/12/21 10:06:28;;;;;;;4.57;1.90;;;10.60;99.90;;;;;;5141740;27;20449;-67
2023/12/21 10:08:56;;;;;;;5.87;1.87;;;10.60;99.90;;;;;;5140509;27;20473;-66
2023/12/21 10:11:23;;;;;;;8.57;2.63;;;10.60;99.90;;;;;;5139366;27;20923;-67
2023/12/21 10:13:53;;;;;;;4.60;2.10;;;10.70;99.90;;;;;;5139138;27;20446;-66
2023/12/21 10:16:21;;;;;;;4.83;3.07;;;10.60;99.90;;;;;;5121052;27;20939;-66
2023/12/21 10:18:50;;;;;;;5.43;2.77;;;10.70;99.90;;;;;;5138725;27;20449;-66
2023/12/21 10:21:16;;;;;;;2.90;2.30;;;10.70;99.90;;;;;;5138412;27;20494;-66
2023/12/21 10:23:44;;;;;;;4.47;3.00;;;10.70;99.90;;;;;;5138598;27;20437;-66
2023/12/21 10:26:12;;;;;;;8.90;3.37;;;10.70;99.90;;;;;;5138232;27;20444;-66
2023/12/21 10:28:39;;;;;;;4.03;3.10;;;10.70;99.90;;;;;;5138304;27;20470;-66
2023/12/21 10:31:08;;;;;;;5.80;3.10;;;10.80;99.90;;;;;;5138073;27;20514;-66
2023/12/21 10:33:35;;;;;;;9.13;3.47;;;10.80;99.90;;;;;;5137693;27;21010;-66
2023/12/21 10:36:02;;;;;;;5.20;3.47;;;10.80;99.90;;;;;;5137823;27;20442;-66
2023/12/21 10:38:30;;;;;;;5.37;4.10;;;10.80;99.90;;;;;;5137950;27;20445;-66
2023/12/21 10:40:58;;;;;;;5.70;3.50;;;10.80;99.90;;;;;;5137668;27;21043;-67
2023/12/21 10:43:26;;;;;;;8.73;5.23;;;10.90;99.90;;;;;;5137798;27;20504;-67
2023/12/21 10:45:53;;;;;;;6.40;3.97;;;10.90;99.90;;;;;;5137746;27;20433;-67
2023/12/21 10:48:22;;;;;;;5.60;4.23;;;10.90;99.90;;;;;;5137561;27;20478;-67
2023/12/21 10:50:52;;;;;;;6.30;4.63;;;10.90;99.90;;;;;;5137145;27;20997;-67
2023/12/21 10:53:23;;;;;;;5.33;4.33;;;10.90;99.90;;;;;;5137328;27;20457;-66
2023/12/21 10:55:50;;;;;;;11.13;4.60;;;11.00;99.90;;;;;;5120386;27;20464;-66
2023/12/21 10:58:17;;;;;;;7.20;4.90;;;11.00;99.90;;;;;;5137095;27;20442;-66
2023/12/21 11:00:46;;;;;;;10.60;5.33;;;11.00;99.90;;;;;;5137429;27;20462;-66
2023/12/21 11:03:16;;;;;;;5.67;4.70;;;11.00;99.90;;;;;;5137032;27;20441;-67
2023/12/21 11:05:44;;;;;;;8.63;4.90;;;10.90;99.90;;;;;;5137199;27;20467;-67
2023/12/21 11:08:11;;;;;;;12.17;5.20;;;11.00;99.90;;;;;;5137372;27;20434;-68
2023/12/21 11:10:38;;;;;;;4.67;3.53;;;11.00;99.90;;;;;;5143374;27;20465;-67
2023/12/21 11:13:05;;;;;;;5.00;4.43;;;11.00;99.90;;;;;;5144843;27;20485;-68
2023/12/21 11:15:33;;;;;;;4.83;3.50;;;11.10;99.90;;;;;;5142961;27;20439;-67
2023/12/21 11:18:04;;;;;;;5.07;3.90;;;11.10;99.90;;;;;;5143506;27;20877;-67
2023/12/21 11:20:37;;;;;;;11.10;4.37;;;11.10;99.90;;;;;;5142521;27;20461;-67
2023/12/21 11:23:06;;;;;;;8.07;4.60;;;11.20;99.90;;;;;;5141691;27;20904;-67
2023/12/21 11:25:33;;;;;;;4.80;4.07;;;11.20;99.90;;;;;;5139960;27;20442;-68
2023/12/21 11:28:02;;;;;;;7.60;6.10;;;11.20;99.90;;;;;;5139447;27;20931;-67
2023/12/21 11:30:29;;;;;;;5.83;4.40;;;11.20;99.90;;;;;;5139982;27;20839;-67
2023/12/21 11:33:06;;;;;;;5.47;3.47;;;11.20;99.90;;;;;;5139733;27;20445;-68
2023/12/21 11:35:33;;;;;;;6.60;3.90;;;11.30;99.90;;;;;;5138833;27;20418;-68
2023/12/21 11:38:01;;;;;;;8.30;3.73;;;11.30;99.90;;;;;;5139082;27;20544;-68
2023/12/21 11:40:29;;;;;;;8.67;3.33;;;11.40;99.90;;;;;;5138819;27;20461;-67
2023/12/21 11:42:59;;;;;;;5.30;2.90;;;11.50;99.90;;;;;;5138945;27;20443;-68
2023/12/21 11:45:28;;;;;;;3.07;2.40;;;11.40;99.90;;;;;;5137651;27;20442;-68
2023/12/21 11:47:56;;;;;;;3.03;2.73;;;11.50;99.90;;;;;;5137756;27;20438;-69
2023/12/21 11:50:26;;;;;;;5.73;3.47;;;11.60;99.90;;;;;;5138059;27;20481;-68
2023/12/21 11:53:05;;;;;;;5.43;2.70;;;11.60;99.90;;;;;;5138122;27;20458;-68
2023/12/21 11:55:38;;;;;;;4.43;2.90;;;11.60;99.90;;;;;;5138975;27;20426;-67
2023/12/21 11:58:15;;;;;;;6.30;3.13;;;11.60;99.90;;;;;;5137846;27;20479;-67
2023/12/21 12:00:44;;;;;;;6.20;3.23;;;11.60;99.90;;;;;;5138109;27;20518;-68
2023/12/21 12:03:12;;;;;;;2.63;2.43;;;11.70;99.90;;;;;;5137760;27;20439;-68
2023/12/21 12:05:40;;;;;;;3.53;2.80;;;11.70;99.90;;;;;;5136977;27;20434;-68
2023/12/21 12:08:07;;;;;;;4.53;2.80;;;11.80;99.90;;;;;;5136837;27;20446;-69
2023/12/21 12:10:34;;;;;;;5.27;2.97;;;11.90;99.90;;;;;;5135747;27;20534;-69
2023/12/21 12:13:02;;;;;;;2.60;1.70;;;12.00;99.90;;;;;;5136776;27;20549;-68
2023/12/21 12:15:29;;;;;;;1.63;1.50;;;12.10;99.90;;;;;;5136245;27;20799;-68
2023/12/21 12:17:56;;;;;;;2.37;1.60;;;12.10;99.90;;;;;;5136800;27;20442;-69
2023/12/21 12:20:22;;;;;;;5.43;2.00;;;12.10;99.90;;;;;;5145018;27;20464;-68
2023/12/21 12:22:52;;;;;;;2.77;2.50;;;12.20;99.90;;;;;;5141838;27;20456;-68
2023/12/21 12:25:20;;;;;;;4.20;1.83;;;12.10;99.90;;;;;;5139570;27;20426;-68
2023/12/21 12:27:47;;;;;;;1.90;1.80;;;12.10;99.90;;;;;;5137434;27;20438;-68
2023/12/21 12:30:15;;;;;;;2.90;1.53;;;12.10;99.90;;;;;;5137251;27;20485;-68
2023/12/21 12:32:42;;;;;;;2.50;2.00;;;12.10;99.90;;;;;;5136856;27;20441;-68
2023/12/21 12:35:11;;;;;;;5.57;1.60;;;12.10;99.90;;;;;;5136838;27;20434;-68
2023/12/21 12:37:38;;;;;;;3.23;2.00;;;12.20;99.90;;;;;;5136424;27;20873;-68
2023/12/21 12:40:07;;;;;;;2.00;1.50;;;12.10;99.90;;;;;;5136042;27;20465;-68
2023/12/21 12:42:35;;;;;;;2.83;1.50;;;12.00;99.90;;;;;;5136239;27;20943;-68
2023/12/21 12:45:03;;;;;;;1.73;1.63;;;12.00;99.90;;;;;;5136123;27;20442;-68
2023/12/21 12:47:30;;;;;;;5.60;1.90;;;12.00;99.90;;;;;;5135720;27;20494;-69